createdAt,value
2023-04-17T00:03:34.097Z,100484.63
2023-04-17T00:08:35.630Z,100478.38
2023-04-17T00:13:37.292Z,100485.75
2023-04-17T00:18:38.768Z,100473.19
2023-04-17T00:23:40.589Z,100474.91
2023-04-17T00:28:42.068Z,100474.00
2023-04-17T00:33:43.479Z,100477.09
2023-04-17T00:38:44.980Z,100480.78
2023-04-17T00:43:46.412Z,100469.50
2023-04-17T00:48:48.685Z,100477.19
2023-04-17T00:53:50.312Z,100480.00
2023-04-17T00:58:51.894Z,100480.22
2023-04-17T01:03:53.663Z,100482.94
2023-04-17T01:08:55.716Z,100485.72
2023-04-17T01:13:57.155Z,100489.00
2023-04-17T01:18:58.625Z,100503.50
2023-04-17T01:24:03.072Z,100499.09
2023-04-17T01:29:04.536Z,100496.41
2023-04-17T01:34:05.984Z,100488.53
2023-04-17T01:39:07.527Z,100491.47
2023-04-17T01:44:09.046Z,100500.25
2023-04-17T01:49:11.658Z,100495.81
2023-04-17T01:54:15.450Z,100506.75
2023-04-17T01:59:17.094Z,100500.97
2023-04-17T02:04:18.807Z,100504.13
2023-04-17T02:09:20.361Z,100507.69
2023-04-17T02:14:21.794Z,100508.53
2023-04-17T02:19:23.602Z,100509.00
2023-04-17T02:24:25.394Z,100511.06
2023-04-17T02:29:26.860Z,100515.00
2023-04-17T02:34:28.275Z,100524.81
2023-04-17T02:39:31.201Z,100515.84
2023-04-17T02:44:32.615Z,100523.72
2023-04-17T02:49:34.052Z,100516.34
2023-04-17T02:54:35.620Z,100517.09
2023-04-17T02:59:37.078Z,100514.53
2023-04-17T03:04:38.793Z,100523.31
2023-04-17T03:09:40.211Z,100536.28
2023-04-17T03:14:42.448Z,100535.66
2023-04-17T03:19:43.863Z,100537.81
2023-04-17T03:24:45.535Z,100533.91
2023-04-17T03:29:46.954Z,100536.50
2023-04-17T03:34:48.379Z,100538.34
2023-04-17T03:39:49.810Z,100533.91
2023-04-17T03:44:52.042Z,100548.63
2023-04-17T03:49:53.469Z,100552.63
2023-04-17T03:54:54.882Z,100558.81
2023-04-17T03:59:56.294Z,100562.56
2023-04-17T04:04:57.766Z,100555.97
2023-04-17T04:09:59.199Z,100566.03
2023-04-17T04:15:01.012Z,100560.94
2023-04-17T04:20:02.474Z,100567.22
2023-04-17T04:25:04.106Z,100570.91
2023-04-17T04:30:06.606Z,100564.22
2023-04-17T04:35:08.609Z,100571.13
2023-04-17T04:40:10.955Z,100579.34
2023-04-17T04:45:12.573Z,100579.63
2023-04-17T04:50:13.997Z,100583.41
2023-04-17T04:55:15.635Z,100593.34
2023-04-17T05:00:18.113Z,100585.69
2023-04-17T05:05:19.592Z,100586.69
2023-04-17T05:10:21.682Z,100588.59
2023-04-17T05:15:23.278Z,100594.84
2023-04-17T05:20:28.400Z,100601.28
2023-04-17T05:25:29.837Z,100600.88
2023-04-17T05:30:31.294Z,100618.53
2023-04-17T05:35:33.225Z,100614.75
2023-04-17T05:40:34.868Z,100620.34
2023-04-17T05:45:36.701Z,100623.13
2023-04-17T05:50:38.241Z,100622.44
2023-04-17T05:55:39.795Z,100611.69
2023-04-17T06:00:42.239Z,100618.31
2023-04-17T06:05:43.725Z,100632.13
2023-04-17T06:10:46.025Z,100633.84
2023-04-17T06:15:47.517Z,100638.72
2023-04-17T06:20:48.976Z,100641.09
2023-04-17T06:25:50.383Z,100634.56
2023-04-17T06:30:51.934Z,100633.63
2023-04-17T06:35:53.369Z,100643.41
2023-04-17T06:40:54.821Z,100634.53
2023-04-17T06:45:56.262Z,100642.03
2023-04-17T06:50:58.048Z,100649.91
2023-04-17T06:55:59.462Z,100638.88
2023-04-17T07:01:00.942Z,100648.72
2023-04-17T07:06:02.402Z,100655.88
2023-04-17T07:11:03.932Z,100658.06
2023-04-17T07:16:06.388Z,100652.91
2023-04-17T07:21:08.042Z,100660.53
2023-04-17T07:26:11.404Z,100666.88
2023-04-17T07:31:12.865Z,100671.31
2023-04-17T07:36:14.324Z,100666.66
2023-04-17T07:41:15.832Z,100677.47
2023-04-17T07:46:17.312Z,100681.41
2023-04-17T07:51:18.800Z,100692.97
2023-04-17T07:56:20.259Z,100686.00
2023-04-17T08:01:21.705Z,100683.75
2023-04-17T08:06:23.234Z,100694.59
2023-04-17T08:11:24.716Z,100695.06
2023-04-17T08:16:26.248Z,100691.97
2023-04-17T08:21:27.807Z,100692.19
2023-04-17T08:26:29.245Z,100690.59
2023-04-17T08:31:31.398Z,100686.06
2023-04-17T08:36:33.133Z,100691.75
2023-04-17T08:41:42.950Z,100705.16
2023-04-17T08:46:45.221Z,100703.13
2023-04-17T08:51:47.219Z,100717.94
2023-04-17T08:56:48.985Z,100728.44
2023-04-17T09:02:01.925Z,100717.16
2023-04-17T09:07:05.124Z,100712.44
2023-04-17T09:12:13.017Z,100720.81
2023-04-17T09:17:19.137Z,100731.25
2023-04-17T09:22:22.443Z,100737.41
2023-04-17T09:27:26.273Z,100731.81
2023-04-17T09:32:28.463Z,100734.72
2023-04-17T09:37:53.859Z,100743.84
2023-04-17T09:42:56.578Z,100736.22
2023-04-17T09:47:58.386Z,100736.84
2023-04-17T09:53:00.579Z,100739.75
2023-04-17T09:58:04.391Z,100734.50
2023-04-17T10:03:07.545Z,100732.78
2023-04-17T10:08:09.335Z,100738.03
2023-04-17T10:13:12.740Z,100725.94
2023-04-17T10:18:24.934Z,100733.94
2023-04-17T10:23:31.974Z,100730.09
2023-04-17T10:28:50.018Z,100724.13
2023-04-17T10:33:54.149Z,100719.97
2023-04-17T10:39:12.409Z,100718.09
2023-04-17T10:44:13.984Z,100721.75
2023-04-17T10:49:15.432Z,100708.16
2023-04-17T10:54:17.079Z,100709.34
2023-04-17T10:59:19.161Z,100713.34
2023-04-17T11:04:34.084Z,100719.00
2023-04-17T11:09:36.211Z,100713.03
2023-04-17T11:14:40.857Z,100719.13
2023-04-17T11:19:42.415Z,100715.66
2023-04-17T11:24:44.334Z,100706.75
2023-04-17T11:29:46.013Z,100709.94
2023-04-17T11:34:47.494Z,100709.53
2023-04-17T11:39:48.976Z,100707.63
2023-04-17T11:44:50.501Z,100714.78
2023-04-17T11:49:51.996Z,100706.28
2023-04-17T11:54:58.100Z,100700.63
2023-04-17T11:59:59.655Z,100701.88
2023-04-17T12:05:14.938Z,100704.88
2023-04-17T12:10:16.437Z,100706.56
2023-04-17T12:15:17.906Z,100698.31
2023-04-17T12:20:19.397Z,100708.78
2023-04-17T12:25:20.911Z,100689.56
2023-04-17T12:30:23.295Z,100694.00
2023-04-17T12:35:24.752Z,100686.44
2023-04-17T12:40:26.338Z,100695.03
2023-04-17T12:45:28.196Z,100698.03
2023-04-17T12:50:29.642Z,100694.72
2023-04-17T12:55:32.249Z,100696.75
2023-04-17T13:00:34.339Z,100688.88
2023-04-17T13:05:36.023Z,100687.56
2023-04-17T13:10:37.579Z,100685.84
2023-04-17T13:15:39.358Z,100670.94
2023-04-17T13:20:40.832Z,100679.22
2023-04-17T13:25:42.414Z,100672.50
2023-04-17T13:30:43.916Z,100682.72
2023-04-17T13:35:45.525Z,100673.50
2023-04-17T13:40:46.946Z,100673.06
2023-04-17T13:45:49.715Z,100663.16
2023-04-17T13:50:51.325Z,100666.59
2023-04-17T13:55:52.792Z,100656.44
2023-04-17T14:00:54.243Z,100660.66
2023-04-17T14:05:56.625Z,100657.94
2023-04-17T14:10:58.149Z,100661.44
2023-04-17T14:15:59.674Z,100659.72
2023-04-17T14:21:01.429Z,100653.69
2023-04-17T14:26:03.353Z,100660.03
2023-04-17T14:31:05.425Z,100660.63
2023-04-17T14:36:07.163Z,100655.47
2023-04-17T14:41:09.256Z,100648.31
2023-04-17T14:46:11.036Z,100658.34
2023-04-17T14:51:14.329Z,100654.34
2023-04-17T14:56:16.091Z,100657.47
2023-04-17T15:01:17.653Z,100659.19
2023-04-17T15:06:19.983Z,100658.94
2023-04-17T15:11:21.404Z,100657.19
2023-04-17T15:16:22.888Z,100654.59
2023-04-17T15:21:24.331Z,100646.56
2023-04-17T15:26:27.261Z,100650.31
2023-04-17T15:31:28.695Z,100640.72
2023-04-17T15:36:31.634Z,100649.72
2023-04-17T15:41:33.054Z,100650.59
2023-04-17T15:46:34.754Z,100646.00
2023-04-17T15:51:36.389Z,100639.41
2023-04-17T15:56:38.772Z,100651.16
2023-04-17T16:01:40.369Z,100650.44
2023-04-17T16:06:41.836Z,100650.88
2023-04-17T16:11:43.653Z,100649.06
2023-04-17T16:16:45.054Z,100656.34
2023-04-17T16:21:46.469Z,100660.75
2023-04-17T16:26:57.195Z,100666.97
2023-04-17T16:31:58.767Z,100660.84
2023-04-17T16:37:00.256Z,100663.50
2023-04-17T16:42:01.834Z,100676.00
2023-04-17T16:52:08.048Z,100673.06
2023-04-17T16:57:09.463Z,100690.91
2023-04-17T17:02:10.965Z,100695.97
2023-04-17T17:07:12.435Z,100712.13
2023-04-17T17:12:13.875Z,100702.25
2023-04-17T17:17:15.627Z,100706.81
2023-04-17T17:22:17.060Z,100717.69
2023-04-17T17:27:18.519Z,100719.25
2023-04-17T17:32:20.048Z,100729.19
2023-04-17T17:37:21.735Z,100738.78
2023-04-17T17:42:23.330Z,100742.09
2023-04-17T17:47:27.379Z,100747.19
2023-04-17T17:52:28.942Z,100751.91
2023-04-17T17:57:38.726Z,100746.31
2023-04-17T18:02:49.855Z,100749.91
2023-04-17T18:07:51.548Z,100755.16
2023-04-17T18:12:53.085Z,100747.25
2023-04-17T18:17:55.564Z,100753.78
2023-04-17T18:22:57.610Z,100758.13
2023-04-17T18:27:59.084Z,100754.19
2023-04-17T18:33:00.730Z,100757.50
2023-04-17T18:38:02.370Z,100772.19
2023-04-17T18:43:05.712Z,100767.75
2023-04-17T18:48:07.473Z,100782.19
2023-04-17T18:53:08.925Z,100778.13
2023-04-17T18:58:10.408Z,100793.03
2023-04-17T19:03:11.879Z,100780.69
2023-04-17T19:08:14.924Z,100792.63
2023-04-17T19:13:16.396Z,100792.88
2023-04-17T19:18:17.874Z,100806.44
2023-04-17T19:23:19.302Z,100802.75
2023-04-17T19:28:21.381Z,100805.88
2023-04-17T19:33:22.992Z,100797.88
2023-04-17T19:38:25.977Z,100796.50
2023-04-17T19:43:27.402Z,100802.53
2023-04-17T19:48:28.818Z,100797.72
2023-04-17T19:53:40.881Z,100803.72
2023-04-17T19:58:42.648Z,100807.09
2023-04-17T20:03:45.342Z,100801.38
2023-04-17T20:08:47.150Z,100803.00
2023-04-17T20:13:48.588Z,100808.03
2023-04-17T20:18:51.821Z,100797.66
2023-04-17T20:23:55.032Z,100798.53
2023-04-17T20:28:56.494Z,100804.16
2023-04-17T20:33:57.902Z,100802.31
2023-04-17T20:38:59.363Z,100800.66
2023-04-17T20:44:01.812Z,100798.81
2023-04-17T20:49:03.380Z,100800.38
2023-04-17T20:54:04.845Z,100803.25
2023-04-17T20:59:06.324Z,100814.06
2023-04-17T21:04:09.817Z,100808.44
2023-04-17T21:09:14.165Z,100817.50
2023-04-17T21:14:16.022Z,100812.78
2023-04-17T21:19:17.468Z,100820.84
2023-04-17T21:24:19.899Z,100822.09
2023-04-17T21:29:21.328Z,100820.16
2023-04-17T21:34:25.863Z,100820.63
2023-04-17T21:39:27.403Z,100816.09
2023-04-17T21:44:28.823Z,100810.34
2023-04-17T21:49:30.232Z,100812.63
2023-04-17T21:54:32.961Z,100811.66
2023-04-17T21:59:35.049Z,100813.56
2023-04-17T22:04:36.610Z,100824.50
2023-04-17T22:09:38.151Z,100823.25
2023-04-17T22:14:39.835Z,100829.81
2023-04-17T22:19:41.879Z,100830.91
2023-04-17T22:25:39.641Z,100833.59
2023-04-17T22:31:37.694Z,100835.78
2023-04-17T22:37:35.273Z,100824.75
2023-04-17T22:43:33.205Z,100840.75
2023-04-17T22:49:30.962Z,100841.06
2023-04-17T22:55:28.786Z,100835.09
2023-04-17T23:01:26.571Z,100834.25
2023-04-17T23:07:24.361Z,100831.66
2023-04-17T23:12:25.782Z,100824.00
2023-04-17T23:17:27.289Z,100832.09
2023-04-17T23:22:28.748Z,100821.94
2023-04-17T23:27:31.547Z,100816.97
2023-04-17T23:32:33.305Z,100815.13
2023-04-17T23:37:34.751Z,100821.16
2023-04-17T23:42:36.168Z,100819.09
2023-04-17T23:47:37.724Z,100819.75
2023-04-17T23:52:39.206Z,100811.34
2023-04-17T23:57:40.658Z,100813.69
